Time;durP1;ratioP1;P1;durP2;ratioP2;P2;SDS_P1;SDS_P2;PMS_P1;PMS_P2;Temp;Humidity;BMP_temperature;BMP_pressure;BME280_temperature;BME280_humidity;BME280_pressure;Samples;Min_cycle;Max_cycle;Signal;HPM_P1;HPM_P2
2021/11/10 00:02:05;;;;;;;11.30;3.75;;;13.30;90.50;;;;;;5077058;28;20138;-75
2021/11/10 00:04:31;;;;;;;13.25;3.58;;;13.30;90.50;;;;;;5082991;28;20033;-75
2021/11/10 00:06:57;;;;;;;20.83;4.00;;;13.20;90.40;;;;;;5074317;28;20032;-75
2021/11/10 00:09:23;;;;;;;8.98;2.55;;;13.20;90.50;;;;;;5080114;28;20032;-75
2021/11/10 00:11:48;;;;;;;15.63;4.43;;;13.20;90.50;;;;;;5079823;28;20051;-75
2021/11/10 00:14:17;;;;;;;14.73;4.30;;;13.20;90.50;;;;;;5092493;28;20031;-75
2021/11/10 00:16:42;;;;;;;17.23;4.57;;;13.20;90.50;;;;;;5089776;28;20040;-74
2021/11/10 00:19:08;;;;;;;5.35;2.20;;;13.20;90.50;;;;;;5089505;28;20467;-75
2021/11/10 00:21:34;;;;;;;6.22;2.05;;;13.20;90.50;;;;;;5079785;28;20039;-74
2021/11/10 00:24:00;;;;;;;13.20;3.95;;;13.20;90.60;;;;;;5075950;28;20024;-74
2021/11/10 00:26:26;;;;;;;14.02;4.88;;;13.20;90.60;;;;;;5085984;28;20029;-75
2021/11/10 00:28:54;;;;;;;9.15;3.28;;;13.20;90.60;;;;;;5056684;28;20024;-75
2021/11/10 00:31:20;;;;;;;14.45;4.47;;;13.20;90.60;;;;;;5056130;28;20032;-75
2021/11/10 00:33:46;;;;;;;10.15;5.35;;;13.10;90.60;;;;;;5086224;28;20032;-74
2021/11/10 00:36:13;;;;;;;10.68;3.53;;;13.10;90.60;;;;;;5074037;28;20166;-75
2021/11/10 00:38:39;;;;;;;6.20;2.60;;;13.20;90.70;;;;;;5073913;28;20036;-74
2021/11/10 00:41:07;;;;;;;7.93;2.92;;;13.20;90.70;;;;;;5086859;28;20017;-75
2021/11/10 00:43:32;;;;;;;10.80;3.90;;;13.10;90.70;;;;;;5074164;28;20037;-75
2021/11/10 00:45:58;;;;;;;14.32;4.72;;;13.20;90.70;;;;;;5055044;28;20029;-75
2021/11/10 00:48:24;;;;;;;22.85;5.13;;;13.20;90.70;;;;;;5074523;28;20119;-75
2021/11/10 00:50:50;;;;;;;15.30;4.22;;;13.10;90.70;;;;;;5054303;28;20032;-75
2021/11/10 00:53:19;;;;;;;23.20;2.42;;;13.10;90.80;;;;;;5089462;28;20036;-74
2021/11/10 00:55:45;;;;;;;6.60;2.38;;;13.20;90.80;;;;;;5105130;28;20096;-75
2021/11/10 00:58:11;;;;;;;13.55;4.22;;;13.10;90.80;;;;;;5106863;28;20353;-75
2021/11/10 01:00:37;;;;;;;4.90;2.30;;;13.10;90.80;;;;;;5093995;28;20057;-75
2021/11/10 01:03:05;;;;;;;11.32;3.83;;;13.10;90.80;;;;;;5077957;28;20130;-75
2021/11/10 01:05:33;;;;;;;13.25;4.72;;;13.10;90.80;;;;;;5082143;28;20032;-75
2021/11/10 01:08:00;;;;;;;14.60;4.45;;;13.10;90.90;;;;;;5108810;28;20023;-74
2021/11/10 01:10:26;;;;;;;18.75;4.32;;;13.10;90.90;;;;;;5086096;28;20042;-75
2021/11/10 01:12:52;;;;;;;4.68;1.90;;;13.20;90.90;;;;;;5092045;28;20051;-75
2021/11/10 01:15:19;;;;;;;10.68;3.55;;;13.10;90.80;;;;;;5076941;28;20060;-75
2021/11/10 01:17:46;;;;;;;8.73;2.60;;;13.10;90.80;;;;;;5074523;28;20073;-75
2021/11/10 01:20:13;;;;;;;7.88;3.25;;;13.10;90.90;;;;;;5092314;28;20036;-75
2021/11/10 01:22:40;;;;;;;16.55;4.75;;;13.10;90.90;;;;;;5079255;28;20440;-75
2021/11/10 01:25:07;;;;;;;9.13;3.03;;;13.10;90.90;;;;;;5075853;28;20024;-75
2021/11/10 01:27:33;;;;;;;6.78;2.83;;;13.00;90.90;;;;;;5094006;28;20039;-74
2021/11/10 01:30:00;;;;;;;9.75;3.17;;;13.10;91.00;;;;;;5095246;28;20471;-75
2021/11/10 01:32:26;;;;;;;14.90;4.88;;;13.10;91.00;;;;;;5083682;28;20107;-75
2021/11/10 01:34:54;;;;;;;13.30;4.68;;;13.00;91.00;;;;;;5075036;28;20023;-75
2021/11/10 01:37:21;;;;;;;10.02;3.70;;;13.00;91.00;;;;;;5109393;28;20035;-75
2021/11/10 01:39:49;;;;;;;14.88;3.75;;;13.00;91.00;;;;;;5084227;28;20072;-75
2021/11/10 01:42:19;;;;;;;11.85;4.32;;;13.10;91.00;;;;;;5084035;28;20493;-75
2021/11/10 01:44:49;;;;;;;16.42;5.75;;;13.00;91.00;;;;;;5085871;28;20020;-75
2021/11/10 01:47:14;;;;;;;16.17;4.57;;;13.00;91.00;;;;;;5079644;28;20407;-75
2021/11/10 01:49:43;;;;;;;12.98;4.45;;;13.00;91.10;;;;;;5090360;28;20088;-75
2021/11/10 01:52:10;;;;;;;8.80;4.22;;;13.00;91.10;;;;;;5090366;28;20027;-75
2021/11/10 01:54:39;;;;;;;10.52;4.80;;;13.00;91.10;;;;;;5081047;28;20047;-75
2021/11/10 01:57:10;;;;;;;12.23;4.90;;;13.00;91.10;;;;;;5077565;28;20063;-75
2021/11/10 01:59:41;;;;;;;21.20;5.68;;;13.00;91.10;;;;;;5074576;28;20504;-75
2021/11/10 02:02:25;;;;;;;16.00;4.65;;;13.00;91.10;;;;;;5073593;28;20113;-75
2021/11/10 02:05:00;;;;;;;7.40;3.33;;;13.00;91.20;;;;;;5086963;28;20024;-75
2021/11/10 02:07:31;;;;;;;16.38;5.32;;;12.90;91.10;;;;;;5081791;28;20020;-75
2021/11/10 02:09:57;;;;;;;10.98;4.13;;;13.00;91.20;;;;;;5083021;28;20030;-75
2021/11/10 02:12:24;;;;;;;14.13;5.95;;;12.90;91.20;;;;;;5075403;28;20472;-75
2021/11/10 02:14:53;;;;;;;11.18;3.50;;;12.90;91.20;;;;;;5085328;28;20101;-75
2021/11/10 02:17:22;;;;;;;8.13;4.15;;;12.90;91.20;;;;;;5076656;28;20129;-75
2021/11/10 02:19:52;;;;;;;11.05;5.18;;;12.90;91.20;;;;;;5087504;28;20138;-75
2021/11/10 02:22:24;;;;;;;7.20;3.03;;;12.90;91.20;;;;;;5091587;28;20723;-75
2021/11/10 02:24:50;;;;;;;10.93;4.50;;;12.90;91.20;;;;;;5108827;28;20032;-76
2021/11/10 02:27:19;;;;;;;6.80;3.28;;;12.90;91.20;;;;;;5091069;28;20026;-75
2021/11/10 02:29:46;;;;;;;19.67;5.78;;;12.90;91.20;;;;;;5106484;28;20440;-75
2021/11/10 02:32:14;;;;;;;19.48;5.03;;;12.90;91.30;;;;;;5083262;28;20027;-75
2021/11/10 02:34:41;;;;;;;10.23;4.18;;;12.90;91.30;;;;;;5092062;28;20502;-75
2021/11/10 02:37:08;;;;;;;20.58;7.28;;;12.90;91.20;;;;;;5077458;28;20047;-76
2021/11/10 02:39:36;;;;;;;19.80;5.78;;;12.80;91.30;;;;;;5096322;28;20375;-75
2021/11/10 02:42:03;;;;;;;11.63;4.35;;;12.80;91.30;;;;;;5107347;28;20538;-75
2021/11/10 02:44:29;;;;;;;4.95;2.47;;;12.90;91.30;;;;;;5092646;28;20368;-75
2021/11/10 02:46:55;;;;;;;13.15;4.38;;;12.80;91.20;;;;;;5101438;28;20122;-75
2021/11/10 02:49:23;;;;;;;10.48;2.08;;;12.80;91.20;;;;;;5098065;28;20076;-75
2021/11/10 02:52:08;;;;;;;13.23;5.30;;;12.80;91.30;;;;;;5074624;28;20094;-75
2021/11/10 02:54:39;;;;;;;9.63;4.28;;;12.80;91.30;;;;;;5098610;28;20054;-75
2021/11/10 02:57:06;;;;;;;8.90;3.65;;;12.80;91.30;;;;;;5089684;28;20043;-75
2021/11/10 02:59:33;;;;;;;18.92;6.30;;;12.80;91.30;;;;;;5102073;28;20027;-75
2021/11/10 03:02:00;;;;;;;9.82;3.47;;;12.80;91.30;;;;;;5079233;28;20047;-75
2021/11/10 03:04:33;;;;;;;17.85;5.03;;;12.80;91.30;;;;;;5083778;28;20019;-75
2021/11/10 03:07:00;;;;;;;14.68;5.47;;;12.80;91.40;;;;;;5083823;28;20024;-75
2021/11/10 03:09:28;;;;;;;20.35;6.43;;;12.80;91.60;;;;;;5099385;28;20032;-75
2021/11/10 03:12:03;;;;;;;15.85;6.00;;;12.80;91.40;;;;;;5082002;28;20106;-75
2021/11/10 03:14:32;;;;;;;13.98;5.10;;;12.80;91.30;;;;;;5079714;28;20390;-76
2021/11/10 03:16:58;;;;;;;11.30;4.57;;;12.80;91.30;;;;;;5076883;28;20118;-77
2021/11/10 03:19:28;;;;;;;18.38;5.03;;;12.80;91.30;;;;;;5087148;28;20070;-77
2021/11/10 03:21:55;;;;;;;13.68;4.38;;;12.80;91.60;;;;;;5083919;28;20494;-77
2021/11/10 03:24:21;;;;;;;6.30;3.63;;;12.80;91.30;;;;;;5083030;28;20028;-77
2021/11/10 03:26:47;;;;;;;13.00;4.60;;;12.80;91.30;;;;;;5088918;28;20027;-76
2021/11/10 03:29:14;;;;;;;6.35;3.90;;;12.70;91.40;;;;;;5083895;28;20020;-73
2021/11/10 03:31:45;;;;;;;20.15;6.28;;;12.70;91.40;;;;;;5081668;28;20031;-74
2021/11/10 03:34:12;;;;;;;2.67;1.80;;;12.70;91.40;;;;;;5104267;28;20726;-72
2021/11/10 03:36:39;;;;;;;8.20;4.35;;;12.70;91.40;;;;;;5084123;28;20040;-75
2021/11/10 03:39:07;;;;;;;12.45;5.60;;;12.70;91.50;;;;;;5086223;28;20031;-75
2021/11/10 03:41:37;;;;;;;7.47;3.42;;;12.70;91.50;;;;;;5100462;28;20020;-75
2021/11/10 03:44:05;;;;;;;15.57;6.80;;;12.70;91.50;;;;;;5078862;28;20028;-75
2021/11/10 03:46:37;;;;;;;12.45;5.25;;;12.70;91.60;;;;;;5084110;28;20024;-87
2021/11/10 03:49:05;;;;;;;17.15;6.00;;;12.70;91.60;;;;;;5090660;28;20031;-75
2021/11/10 03:51:32;;;;;;;16.55;7.13;;;12.70;91.60;;;;;;5087462;28;20487;-75
2021/11/10 03:53:57;;;;;;;15.05;6.03;;;12.70;91.60;;;;;;5069019;28;20063;-76
2021/11/10 03:56:24;;;;;;;17.77;7.18;;;12.70;91.60;;;;;;5064550;28;20036;-76
2021/11/10 03:58:50;;;;;;;20.10;6.35;;;12.70;91.60;;;;;;5086298;28;20527;-75
2021/11/10 04:01:17;;;;;;;17.23;7.70;;;12.70;91.60;;;;;;5063711;28;20024;-75
2021/11/10 04:03:45;;;;;;;21.58;7.95;;;12.70;91.70;;;;;;5062367;28;20522;-75
2021/11/10 04:06:12;;;;;;;13.68;6.28;;;12.80;91.70;;;;;;5060388;28;20063;-75
2021/11/10 04:08:41;;;;;;;19.15;7.30;;;12.80;91.60;;;;;;5060818;28;21639;-75
2021/11/10 04:11:07;;;;;;;28.13;7.50;;;12.80;91.50;;;;;;5073327;28;20371;-75
2021/11/10 04:13:34;;;;;;;14.38;6.43;;;12.80;91.50;;;;;;5068098;28;20060;-76
2021/11/10 04:16:01;;;;;;;11.10;5.75;;;12.80;91.50;;;;;;5058310;28;20434;-76
2021/11/10 04:18:32;;;;;;;20.50;6.88;;;12.80;91.40;;;;;;5057808;28;20570;-76
2021/11/10 04:21:00;;;;;;;13.03;6.40;;;12.90;91.70;;;;;;5068732;28;20020;-76
2021/11/10 04:23:28;;;;;;;16.90;6.95;;;12.90;91.40;;;;;;5060425;28;20020;-76
2021/11/10 04:25:54;;;;;;;14.10;7.38;;;12.90;91.40;;;;;;5075223;28;20032;-76
2021/11/10 04:28:21;;;;;;;12.52;5.05;;;12.90;91.30;;;;;;5060355;28;20081;-76
2021/11/10 04:30:49;;;;;;;14.20;7.20;;;12.90;91.30;;;;;;5063328;28;20032;-76
2021/11/10 04:33:17;;;;;;;9.95;3.78;;;13.00;91.30;;;;;;5055863;28;20032;-76
2021/11/10 04:35:43;;;;;;;9.50;4.57;;;12.90;91.20;;;;;;5054904;28;20078;-76
2021/11/10 04:38:10;;;;;;;17.50;6.97;;;12.90;91.20;;;;;;5067926;28;20134;-76
2021/11/10 04:40:35;;;;;;;19.60;8.73;;;13.00;91.20;;;;;;5066919;28;20353;-76
2021/11/10 04:43:01;;;;;;;20.55;8.63;;;13.00;91.20;;;;;;5073255;28;20028;-76
2021/11/10 04:45:37;;;;;;;18.17;8.43;;;13.00;91.10;;;;;;5057959;28;20032;-75
2021/11/10 04:48:04;;;;;;;20.50;8.93;;;13.00;91.20;;;;;;5086013;28;20031;-75
2021/11/10 04:50:30;;;;;;;18.45;6.20;;;12.90;91.10;;;;;;5059619;28;20027;-76
2021/11/10 04:52:57;;;;;;;12.77;6.15;;;12.90;91.10;;;;;;5092891;28;20035;-74
2021/11/10 04:55:24;;;;;;;19.10;8.90;;;12.90;91.10;;;;;;5077669;28;20042;-76
2021/11/10 04:57:50;;;;;;;15.75;6.60;;;12.90;91.10;;;;;;5092195;28;20368;-76
2021/11/10 05:00:19;;;;;;;16.02;7.00;;;12.80;91.20;;;;;;5093052;28;20030;-76
2021/11/10 05:02:57;;;;;;;12.07;5.93;;;12.80;91.20;;;;;;5094055;28;20027;-76
2021/11/10 05:05:23;;;;;;;18.63;7.35;;;12.90;91.20;;;;;;5080081;28;20074;-76
2021/11/10 05:07:50;;;;;;;10.60;6.43;;;12.80;91.20;;;;;;5078180;28;20425;-75
2021/11/10 05:10:17;;;;;;;11.88;6.40;;;12.80;91.20;;;;;;5080028;28;20510;-75
2021/11/10 05:12:46;;;;;;;19.05;6.20;;;12.80;91.20;;;;;;5076831;28;20478;-76
2021/11/10 05:15:12;;;;;;;17.73;7.75;;;12.80;91.20;;;;;;5084719;28;20130;-76
2021/11/10 05:17:38;;;;;;;20.73;7.80;;;12.80;91.30;;;;;;5074859;28;20114;-76
2021/11/10 05:20:05;;;;;;;20.90;9.18;;;12.80;91.30;;;;;;5079361;28;20020;-75
2021/11/10 05:22:31;;;;;;;18.25;6.53;;;12.80;91.30;;;;;;5092069;28;20038;-76
2021/11/10 05:24:57;;;;;;;22.55;8.50;;;12.80;91.30;;;;;;5093725;28;20027;-76
2021/11/10 05:27:22;;;;;;;17.13;7.38;;;12.80;91.30;;;;;;5094247;28;20054;-76
2021/11/10 05:29:48;;;;;;;15.70;8.02;;;12.80;91.30;;;;;;5092960;28;20008;-76
2021/11/10 05:32:14;;;;;;;17.55;6.25;;;12.80;91.30;;;;;;5103198;28;20110;-75
2021/11/10 05:34:39;;;;;;;18.88;8.77;;;12.80;91.30;;;;;;5093388;28;20103;-75
2021/11/10 05:37:08;;;;;;;20.45;8.10;;;12.80;91.30;;;;;;5096727;28;20035;-76
2021/11/10 05:39:34;;;;;;;19.45;7.72;;;12.80;91.30;;;;;;5102857;28;20491;-76
2021/11/10 05:41:59;;;;;;;23.80;9.02;;;12.80;91.30;;;;;;5094124;28;20055;-75
2021/11/10 05:44:25;;;;;;;22.48;8.05;;;12.90;91.30;;;;;;5103900;28;20028;-76
2021/11/10 05:46:51;;;;;;;19.75;8.95;;;12.80;91.20;;;;;;5101110;28;20038;-75
2021/11/10 05:49:16;;;;;;;18.70;7.35;;;12.80;91.20;;;;;;5100012;28;20023;-76
2021/11/10 05:51:42;;;;;;;17.92;7.60;;;12.80;91.20;;;;;;5118383;27;20114;-75
2021/11/10 05:54:08;;;;;;;20.45;8.38;;;12.80;91.20;;;;;;5101875;27;20040;-75
2021/11/10 05:56:39;;;;;;;13.27;7.15;;;12.80;91.20;;;;;;5113682;27;20402;-75
2021/11/10 05:59:06;;;;;;;15.68;6.13;;;12.80;91.20;;;;;;5107559;27;20531;-75
2021/11/10 06:01:33;;;;;;;13.93;5.85;;;12.80;91.20;;;;;;5104090;27;20059;-75
2021/11/10 06:03:59;;;;;;;12.82;5.53;;;12.80;91.20;;;;;;5092905;28;20023;-76
2021/11/10 06:06:27;;;;;;;21.30;7.30;;;12.80;91.20;;;;;;5098916;28;20036;-75
2021/11/10 06:08:53;;;;;;;11.63;5.30;;;12.80;91.20;;;;;;5105033;27;20038;-74
2021/11/10 06:11:19;;;;;;;14.38;5.07;;;12.80;91.20;;;;;;5097767;28;20067;-82
2021/11/10 06:13:44;;;;;;;6.68;2.60;;;12.80;91.10;;;;;;5103852;28;20088;-77
2021/11/10 06:16:10;;;;;;;22.25;5.97;;;12.80;91.20;;;;;;5096467;28;20112;-77
2021/11/10 06:18:36;;;;;;;14.88;6.25;;;12.80;91.20;;;;;;5105644;28;20054;-76
2021/11/10 06:21:03;;;;;;;10.65;5.05;;;12.80;91.10;;;;;;5105054;28;20051;-76
2021/11/10 06:23:29;;;;;;;17.08;7.47;;;12.80;91.10;;;;;;5096759;28;20922;-76
2021/11/10 06:25:55;;;;;;;6.82;3.72;;;12.80;91.30;;;;;;5084984;28;20020;-74
2021/11/10 06:28:21;;;;;;;21.00;6.78;;;12.80;91.10;;;;;;5083842;28;20039;-75
2021/11/10 06:30:47;;;;;;;21.48;7.75;;;12.80;91.10;;;;;;5096073;28;20019;-74
2021/11/10 06:33:13;;;;;;;16.42;6.90;;;12.70;91.10;;;;;;5098162;28;20039;-75
2021/11/10 06:35:40;;;;;;;19.83;6.45;;;12.80;91.10;;;;;;5095963;28;20058;-75
2021/11/10 06:38:06;;;;;;;16.63;7.28;;;12.80;91.20;;;;;;5098441;28;20398;-74
2021/11/10 06:40:31;;;;;;;16.30;6.60;;;12.80;91.10;;;;;;5098537;28;20035;-74
2021/11/10 06:42:57;;;;;;;18.75;7.20;;;12.80;91.10;;;;;;5102041;28;20487;-74
2021/11/10 06:45:23;;;;;;;22.50;5.60;;;12.80;91.10;;;;;;5103614;28;20020;-74
2021/11/10 06:47:49;;;;;;;16.98;6.88;;;12.80;91.10;;;;;;5092133;28;20428;-75
2021/11/10 06:50:15;;;;;;;16.90;6.78;;;12.80;91.10;;;;;;5099161;28;20534;-74
2021/11/10 06:52:41;;;;;;;11.75;4.45;;;12.80;91.10;;;;;;5101762;28;20063;-75
2021/11/10 06:55:08;;;;;;;13.88;5.55;;;12.80;91.10;;;;;;5093490;28;20068;-80
2021/11/10 06:57:34;;;;;;;15.88;6.78;;;12.80;91.40;;;;;;5095482;28;20043;-82
2021/11/10 06:59:59;;;;;;;15.23;5.72;;;12.80;91.10;;;;;;5099347;28;20032;-77
2021/11/10 07:02:25;;;;;;;11.98;4.97;;;12.80;91.10;;;;;;5105071;28;20044;-80
2021/11/10 07:04:51;;;;;;;10.93;4.95;;;12.80;91.10;;;;;;5101325;28;20028;-76
2021/11/10 07:07:16;;;;;;;18.42;5.88;;;12.80;91.10;;;;;;5100524;28;20080;-76
2021/11/10 07:09:42;;;;;;;16.02;6.30;;;12.80;91.10;;;;;;5101928;28;20028;-76
2021/11/10 07:12:08;;;;;;;12.65;5.68;;;12.80;91.00;;;;;;5099132;28;20096;-76
2021/11/10 07:14:34;;;;;;;19.38;6.47;;;12.80;91.00;;;;;;5101406;28;20020;-76
2021/11/10 07:17:00;;;;;;;15.38;6.60;;;12.80;91.00;;;;;;5100052;28;20438;-75
2021/11/10 07:19:26;;;;;;;7.50;4.32;;;12.80;91.00;;;;;;5101373;28;20039;-85
2021/11/10 07:21:51;;;;;;;14.75;6.72;;;12.80;91.00;;;;;;5099122;28;20032;-76
2021/11/10 07:24:17;;;;;;;14.32;6.30;;;12.80;91.00;;;;;;5105274;28;20034;-75
2021/11/10 07:26:46;;;;;;;14.63;6.13;;;12.80;91.00;;;;;;5106685;28;20034;-77
2021/11/10 07:29:12;;;;;;;13.55;6.35;;;12.80;91.00;;;;;;5100835;28;20016;-75
2021/11/10 07:31:38;;;;;;;11.23;5.95;;;12.80;91.00;;;;;;5095036;28;20365;-74
2021/11/10 07:34:04;;;;;;;8.57;5.15;;;12.80;91.00;;;;;;5098997;28;20028;-74
2021/11/10 07:36:30;;;;;;;15.32;8.05;;;12.80;91.00;;;;;;5102356;28;20040;-73
2021/11/10 07:38:57;;;;;;;8.05;3.40;;;12.80;91.00;;;;;;5108412;28;20712;-73
2021/11/10 07:41:26;;;;;;;17.58;7.70;;;12.80;91.00;;;;;;5109244;28;20452;-73
2021/11/10 07:43:53;;;;;;;15.88;7.88;;;12.80;91.00;;;;;;5103300;28;20069;-73
2021/11/10 07:46:21;;;;;;;18.23;6.93;;;12.80;91.00;;;;;;5104942;28;20443;-74
2021/11/10 07:48:47;;;;;;;7.40;3.63;;;12.80;91.00;;;;;;5100572;28;20356;-74
2021/11/10 07:51:16;;;;;;;7.28;2.72;;;12.70;91.00;;;;;;5100503;28;20028;-74
2021/11/10 07:53:42;;;;;;;16.27;7.22;;;12.70;91.00;;;;;;5103640;28;20047;-75
2021/11/10 07:56:08;;;;;;;16.77;6.22;;;12.70;91.10;;;;;;5100114;28;20024;-75
2021/11/10 07:58:38;;;;;;;8.73;4.10;;;12.70;91.20;;;;;;5079752;27;20028;-75
2021/11/10 08:01:05;;;;;;;7.93;4.30;;;12.60;91.30;;;;;;5101634;28;20379;-75
2021/11/10 08:03:31;;;;;;;4.50;3.03;;;12.60;91.30;;;;;;5105451;28;20031;-75
2021/11/10 08:05:58;;;;;;;6.75;3.65;;;12.60;91.40;;;;;;5102467;28;20023;-75
2021/11/10 08:08:26;;;;;;;9.15;5.13;;;12.50;91.50;;;;;;5095505;28;20024;-80
2021/11/10 08:10:58;;;;;;;9.68;5.47;;;12.50;91.50;;;;;;5101843;28;20056;-81
2021/11/10 08:13:24;;;;;;;12.70;4.82;;;12.50;91.60;;;;;;5094909;28;20487;-80
2021/11/10 08:15:50;;;;;;;13.45;4.57;;;12.50;91.70;;;;;;5103009;28;20035;-75
2021/11/10 08:18:17;;;;;;;8.38;5.47;;;12.50;91.70;;;;;;5106370;28;20019;-78
2021/11/10 08:20:43;;;;;;;13.70;5.60;;;12.40;91.70;;;;;;5104790;27;20046;-73
2021/11/10 08:23:10;;;;;;;5.55;3.72;;;12.50;91.80;;;;;;5101495;27;20054;-73
2021/11/10 08:25:35;;;;;;;1.75;1.33;;;12.40;91.80;;;;;;5112108;27;20056;-76
2021/11/10 08:28:01;;;;;;;6.15;2.67;;;12.40;91.80;;;;;;5100208;28;20103;-74
2021/11/10 08:30:27;;;;;;;5.85;3.50;;;12.50;91.90;;;;;;5093223;28;20029;-74
2021/11/10 08:32:54;;;;;;;20.13;7.25;;;12.50;91.90;;;;;;5096772;28;20032;-74
2021/11/10 08:35:20;;;;;;;13.27;6.97;;;12.40;91.90;;;;;;5101260;28;20483;-75
2021/11/10 08:37:50;;;;;;;15.23;4.93;;;12.40;91.90;;;;;;5095121;28;20035;-75
2021/11/10 08:40:16;;;;;;;6.38;3.53;;;12.50;91.90;;;;;;5094471;28;20028;-75
2021/11/10 08:42:42;;;;;;;17.45;7.13;;;12.40;91.90;;;;;;5094644;28;20047;-75
2021/11/10 08:45:11;;;;;;;7.47;3.47;;;12.40;91.90;;;;;;5096869;28;20042;-74
2021/11/10 08:47:38;;;;;;;5.22;2.75;;;12.50;92.00;;;;;;5104769;28;20035;-75
2021/11/10 08:50:05;;;;;;;10.35;5.60;;;12.40;92.00;;;;;;5102026;28;20110;-74
2021/11/10 08:52:31;;;;;;;16.88;9.10;;;12.50;92.00;;;;;;5097090;28;20032;-74
2021/11/10 08:54:57;;;;;;;3.90;2.22;;;12.50;92.10;;;;;;5103267;28;20089;-75
2021/11/10 08:57:23;;;;;;;11.00;5.28;;;12.50;92.10;;;;;;5094362;28;20040;-74
2021/11/10 08:59:49;;;;;;;6.68;3.22;;;12.50;92.10;;;;;;5104351;27;20028;-74
2021/11/10 09:02:15;;;;;;;13.45;5.53;;;12.50;92.10;;;;;;5094255;28;20131;-74
2021/11/10 09:04:40;;;;;;;15.63;7.22;;;12.50;92.10;;;;;;5108190;28;20024;-75
2021/11/10 09:07:08;;;;;;;14.60;7.43;;;12.50;92.10;;;;;;5103894;28;20502;-75
2021/11/10 09:09:35;;;;;;;21.63;7.40;;;12.60;92.10;;;;;;5107470;28;20031;-75
2021/11/10 09:12:01;;;;;;;6.82;4.20;;;12.60;92.00;;;;;;5103742;28;20039;-75
2021/11/10 09:14:27;;;;;;;19.67;8.10;;;12.60;92.00;;;;;;5106612;28;20031;-75
2021/11/10 09:16:52;;;;;;;12.52;6.60;;;12.60;92.00;;;;;;5111861;28;20032;-75
2021/11/10 09:19:18;;;;;;;18.98;4.45;;;12.60;92.00;;;;;;5098613;28;20031;-74
2021/11/10 09:21:44;;;;;;;6.07;3.53;;;12.70;92.00;;;;;;5095900;28;20115;-74
2021/11/10 09:24:14;;;;;;;6.60;3.47;;;12.70;92.00;;;;;;5108696;28;20471;-75
2021/11/10 09:26:40;;;;;;;9.95;4.55;;;12.70;92.00;;;;;;5112598;28;20028;-75
2021/11/10 09:29:07;;;;;;;14.02;6.75;;;12.70;92.00;;;;;;5108258;28;20028;-74
2021/11/10 09:31:38;;;;;;;8.02;2.65;;;12.70;92.00;;;;;;5101178;28;20039;-75
2021/11/10 09:34:10;;;;;;;4.75;2.67;;;12.80;92.00;;;;;;5107049;28;20028;-75
2021/11/10 09:36:46;;;;;;;16.85;6.55;;;12.80;92.10;;;;;;5094669;28;20039;-74
2021/11/10 09:39:16;;;;;;;4.22;2.78;;;12.70;92.10;;;;;;5093787;28;20032;-74
2021/11/10 09:41:44;;;;;;;13.38;4.93;;;12.70;92.10;;;;;;5100247;28;20066;-75
2021/11/10 09:44:11;;;;;;;7.15;3.67;;;12.80;92.10;;;;;;5093625;28;20492;-75
2021/11/10 09:46:38;;;;;;;10.32;4.60;;;12.80;92.10;;;;;;5096590;28;20116;-75
2021/11/10 09:49:05;;;;;;;10.80;4.85;;;12.80;92.20;;;;;;5095128;28;20027;-75
2021/11/10 09:51:31;;;;;;;3.28;2.28;;;12.90;92.20;;;;;;5092094;28;20028;-75
2021/11/10 09:53:58;;;;;;;10.98;4.70;;;12.80;92.20;;;;;;5091723;28;20097;-75
2021/11/10 09:56:24;;;;;;;15.00;5.80;;;12.80;92.20;;;;;;5106790;28;20043;-75
2021/11/10 09:58:51;;;;;;;4.38;2.58;;;12.80;92.20;;;;;;5108584;27;20057;-75
2021/11/10 10:01:18;;;;;;;7.32;4.03;;;12.80;92.20;;;;;;5110326;27;20027;-75
2021/11/10 10:03:46;;;;;;;10.73;4.95;;;12.90;92.20;;;;;;5092400;28;20024;-75
2021/11/10 10:06:15;;;;;;;4.45;2.92;;;13.00;92.20;;;;;;5091853;28;20144;-75
2021/11/10 10:08:45;;;;;;;10.63;5.75;;;12.90;92.10;;;;;;5091360;28;20059;-76
2021/11/10 10:11:12;;;;;;;6.35;2.33;;;13.00;92.10;;;;;;5092903;28;20372;-75
2021/11/10 10:13:39;;;;;;;7.68;3.72;;;13.00;92.10;;;;;;5090754;28;20438;-75
2021/11/10 10:16:05;;;;;;;6.80;3.17;;;13.00;92.10;;;;;;5102721;28;20514;-76
2021/11/10 10:18:31;;;;;;;11.80;4.70;;;13.00;92.10;;;;;;5097113;28;20028;-75
2021/11/10 10:21:05;;;;;;;13.63;4.43;;;13.00;92.10;;;;;;5110871;28;20043;-75
2021/11/10 10:23:34;;;;;;;8.02;3.08;;;13.00;92.10;;;;;;5096395;28;20119;-75
2021/11/10 10:26:03;;;;;;;13.48;4.40;;;13.00;92.10;;;;;;5092181;28;20031;-75
2021/11/10 10:28:32;;;;;;;12.43;3.90;;;13.00;92.10;;;;;;5091281;28;20024;-75
2021/11/10 10:31:06;;;;;;;12.73;4.05;;;13.10;92.20;;;;;;5096879;28;20020;-75
2021/11/10 10:33:38;;;;;;;5.65;3.13;;;13.00;92.10;;;;;;5099117;28;20028;-79
2021/11/10 10:36:09;;;;;;;7.18;3.75;;;13.10;92.10;;;;;;5108758;28;20368;-75
2021/11/10 10:38:52;;;;;;;7.30;3.70;;;13.20;92.10;;;;;;5105376;28;20233;-75
2021/11/10 10:41:27;;;;;;;8.07;4.63;;;13.10;92.10;;;;;;5104687;28;20491;-86
2021/11/10 10:43:55;;;;;;;1.98;1.38;;;13.20;92.20;;;;;;5097846;28;20028;-86
2021/11/10 10:46:27;;;;;;;18.67;5.25;;;13.20;92.20;;;;;;5099417;28;20391;-80
2021/11/10 10:49:32;;;;;;;10.25;4.97;;;13.10;92.20;;;;;;5107531;28;20020;-79
2021/11/10 10:52:15;;;;;;;14.20;4.53;;;13.20;92.20;;;;;;5104667;28;20074;-81
2021/11/10 10:54:42;;;;;;;5.57;2.05;;;13.20;92.20;;;;;;5101092;28;20048;-80
2021/11/10 10:57:10;;;;;;;3.28;2.20;;;13.20;92.20;;;;;;5105168;28;20091;-80
2021/11/10 10:59:36;;;;;;;9.32;3.47;;;13.20;92.30;;;;;;5106656;28;20374;-82
2021/11/10 11:02:03;;;;;;;11.85;4.43;;;13.20;92.30;;;;;;5103211;28;20027;-81
2021/11/10 11:04:31;;;;;;;4.45;2.63;;;13.20;92.30;;;;;;5107968;28;20027;-80
2021/11/10 11:07:11;;;;;;;7.47;3.08;;;13.20;92.30;;;;;;5105653;28;20028;-82
2021/11/10 11:09:49;;;;;;;6.82;2.72;;;13.20;92.30;;;;;;5107510;28;20387;-81
2021/11/10 11:12:17;;;;;;;3.65;2.75;;;13.30;92.40;;;;;;5107548;28;20477;-79
2021/11/10 11:15:12;;;;;;;11.65;4.82;;;13.30;92.40;;;;;;5103761;28;20047;-75
2021/11/10 11:17:40;;;;;;;6.88;2.42;;;13.30;92.40;;;;;;5101599;28;20036;-75
2021/11/10 11:20:11;;;;;;;7.38;3.60;;;13.30;92.40;;;;;;5102784;28;20070;-75
2021/11/10 11:22:41;;;;;;;11.07;3.45;;;13.40;92.50;;;;;;5101597;28;20027;-75
2021/11/10 11:25:14;;;;;;;7.70;3.40;;;13.40;92.50;;;;;;5107736;28;20489;-75
2021/11/10 11:27:51;;;;;;;7.20;3.30;;;13.40;92.50;;;;;;5101449;28;20376;-74
2021/11/10 11:30:17;;;;;;;8.88;3.20;;;13.40;92.40;;;;;;5101509;28;20028;-75
2021/11/10 11:32:55;;;;;;;2.75;1.55;;;13.40;92.40;;;;;;5095308;28;20376;-74
2021/11/10 11:35:30;;;;;;;14.55;5.05;;;13.40;92.40;;;;;;5101664;28;20023;-82
2021/11/10 11:38:02;;;;;;;2.47;1.70;;;13.40;92.40;;;;;;5111686;28;20049;-78
2021/11/10 11:40:29;;;;;;;14.85;3.63;;;13.40;92.40;;;;;;5102459;28;20024;-77
2021/11/10 11:42:57;;;;;;;15.77;5.85;;;13.40;92.50;;;;;;5106039;28;20027;-86
2021/11/10 11:45:28;;;;;;;6.88;2.08;;;13.40;92.40;;;;;;5104532;28;20051;-90
2021/11/10 11:47:56;;;;;;;14.82;4.75;;;13.50;92.50;;;;;;5108058;28;20097;-76
2021/11/10 11:50:22;;;;;;;11.73;4.38;;;13.40;92.40;;;;;;5110481;28;20036;-80
2021/11/10 11:52:50;;;;;;;7.57;2.42;;;13.50;92.40;;;;;;5098590;28;20028;-76
2021/11/10 11:55:26;;;;;;;19.58;5.70;;;13.50;92.40;;;;;;5097549;28;20071;-76
2021/11/10 11:58:03;;;;;;;10.23;4.80;;;13.50;92.30;;;;;;5105828;28;20158;-76
2021/11/10 12:00:34;;;;;;;6.35;2.30;;;13.50;92.30;;;;;;5109003;27;20031;-87
2021/11/10 12:03:01;;;;;;;14.90;4.30;;;13.50;92.40;;;;;;5096813;27;20024;-88
2021/11/10 12:05:27;;;;;;;11.85;4.55;;;13.60;92.40;;;;;;5109352;27;20032;-87
2021/11/10 12:07:59;;;;;;;11.63;4.82;;;13.60;92.40;;;;;;5099858;28;20111;-86
2021/11/10 12:10:37;;;;;;;13.52;6.35;;;13.60;92.30;;;;;;5108627;28;20545;-89
2021/11/10 12:13:32;;;;;;;8.55;3.50;;;13.60;92.30;;;;;;5114263;28;20031;-86
2021/11/10 12:16:04;;;;;;;5.35;2.95;;;13.70;92.30;;;;;;5095277;28;20039;-86
2021/11/10 12:18:40;;;;;;;3.58;2.03;;;13.70;92.30;;;;;;5122276;28;20020;-86
2021/11/10 12:21:06;;;;;;;9.48;4.35;;;13.70;92.30;;;;;;5102787;28;20032;-86
2021/11/10 12:23:50;;;;;;;14.75;5.22;;;13.70;92.30;;;;;;5094558;28;20382;-86
2021/11/10 12:26:17;;;;;;;8.18;3.38;;;13.70;92.30;;;;;;5097349;28;20016;-84
2021/11/10 12:28:55;;;;;;;12.27;4.15;;;13.70;92.30;;;;;;5098426;28;20044;-77
2021/11/10 12:31:32;;;;;;;14.20;4.03;;;13.80;92.30;;;;;;5104772;28;20032;-76
2021/11/10 12:33:59;;;;;;;8.00;3.50;;;13.70;92.20;;;;;;5109596;28;20032;-77
2021/11/10 12:37:02;;;;;;;20.02;6.03;;;13.80;92.20;;;;;;5096846;28;20483;-77
2021/11/10 12:39:29;;;;;;;22.75;6.05;;;13.80;92.20;;;;;;5095106;28;20020;-76
2021/11/10 12:42:16;;;;;;;11.75;4.10;;;13.80;92.20;;;;;;5094926;28;20024;-76
2021/11/10 12:44:48;;;;;;;10.57;3.78;;;13.80;92.20;;;;;;5096120;28;20030;-77
2021/11/10 12:47:37;;;;;;;12.40;4.28;;;13.80;92.20;;;;;;5095620;27;20060;-78